sensor_id;sensor_type;location;lat;lon;timestamp;pressure;altitude;pressure_sealevel;temperature;humidity
4199;BME280;2113;50.946;14.610;2023-04-28T00:00:55;97136.97;;;1.78;87.72
4199;BME280;2113;50.946;14.610;2023-04-28T00:03:24;97137.31;;;1.72;87.42
4199;BME280;2113;50.946;14.610;2023-04-28T00:05:54;97132.84;;;1.76;87.16
4199;BME280;2113;50.946;14.610;2023-04-28T00:08:23;97135.34;;;1.77;87.18
4199;BME280;2113;50.946;14.610;2023-04-28T00:10:53;97137.81;;;1.79;86.21
4199;BME280;2113;50.946;14.610;2023-04-28T00:13:21;97133.50;;;1.79;85.06
4199;BME280;2113;50.946;14.610;2023-04-28T00:15:49;97136.09;;;1.64;86.08
4199;BME280;2113;50.946;14.610;2023-04-28T00:18:19;97130.69;;;1.68;86.49
4199;BME280;2113;50.946;14.610;2023-04-28T00:20:49;97128.94;;;1.85;86.30
4199;BME280;2113;50.946;14.610;2023-04-28T00:23:17;97129.16;;;1.96;85.07
4199;BME280;2113;50.946;14.610;2023-04-28T00:25:50;97124.53;;;1.87;84.93
4199;BME280;2113;50.946;14.610;2023-04-28T00:28:18;97126.59;;;1.80;85.25
4199;BME280;2113;50.946;14.610;2023-04-28T00:31:00;97120.06;;;1.74;85.44
4199;BME280;2113;50.946;14.610;2023-04-28T00:33:28;97117.41;;;1.60;85.48
4199;BME280;2113;50.946;14.610;2023-04-28T00:36:01;97118.06;;;1.48;87.03
4199;BME280;2113;50.946;14.610;2023-04-28T00:38:30;97112.75;;;1.35;87.99
4199;BME280;2113;50.946;14.610;2023-04-28T00:40:58;97114.88;;;1.27;89.26
4199;BME280;2113;50.946;14.610;2023-04-28T00:43:26;97112.72;;;1.20;89.83
4199;BME280;2113;50.946;14.610;2023-04-28T00:45:55;97118.19;;;1.14;89.98
4199;BME280;2113;50.946;14.610;2023-04-28T00:48:23;97117.25;;;1.15;89.20
4199;BME280;2113;50.946;14.610;2023-04-28T00:50:52;97115.38;;;1.18;88.92
4199;BME280;2113;50.946;14.610;2023-04-28T00:53:22;97116.63;;;1.27;87.88
4199;BME280;2113;50.946;14.610;2023-04-28T00:55:52;97110.91;;;1.22;87.61
4199;BME280;2113;50.946;14.610;2023-04-28T00:58:23;97112.56;;;1.23;87.78
4199;BME280;2113;50.946;14.610;2023-04-28T01:00:51;97112.19;;;1.13;87.83
4199;BME280;2113;50.946;14.610;2023-04-28T01:03:20;97108.97;;;1.25;87.91
4199;BME280;2113;50.946;14.610;2023-04-28T01:05:49;97106.06;;;1.16;87.74
4199;BME280;2113;50.946;14.610;2023-04-28T01:08:22;97098.78;;;1.08;88.18
4199;BME280;2113;50.946;14.610;2023-04-28T01:10:50;97095.81;;;0.98;88.58
4199;BME280;2113;50.946;14.610;2023-04-28T01:13:36;97091.13;;;1.06;88.07
4199;BME280;2113;50.946;14.610;2023-04-28T01:16:05;97092.53;;;1.12;88.04
4199;BME280;2113;50.946;14.610;2023-04-28T01:18:34;97083.84;;;1.15;87.69
4199;BME280;2113;50.946;14.610;2023-04-28T01:21:03;97090.06;;;1.26;87.20
4199;BME280;2113;50.946;14.610;2023-04-28T01:23:33;97086.75;;;1.24;86.85
4199;BME280;2113;50.946;14.610;2023-04-28T01:26:03;97077.63;;;1.19;86.71
4199;BME280;2113;50.946;14.610;2023-04-28T01:28:32;97076.28;;;1.12;86.87
4199;BME280;2113;50.946;14.610;2023-04-28T01:31:01;97074.13;;;1.04;86.94
4199;BME280;2113;50.946;14.610;2023-04-28T01:33:29;97073.44;;;1.00;87.23
4199;BME280;2113;50.946;14.610;2023-04-28T01:35:57;97064.91;;;1.00;87.18
4199;BME280;2113;50.946;14.610;2023-04-28T01:38:26;97063.16;;;1.00;87.22
4199;BME280;2113;50.946;14.610;2023-04-28T01:40:54;97059.78;;;0.83;87.69
4199;BME280;2113;50.946;14.610;2023-04-28T01:43:25;97060.34;;;0.72;88.25
4199;BME280;2113;50.946;14.610;2023-04-28T01:45:54;97061.88;;;0.76;88.26
4199;BME280;2113;50.946;14.610;2023-04-28T01:48:23;97064.44;;;0.76;87.91
4199;BME280;2113;50.946;14.610;2023-04-28T01:50:51;97061.38;;;0.85;87.74
4199;BME280;2113;50.946;14.610;2023-04-28T01:53:20;97066.78;;;0.96;86.28
4199;BME280;2113;50.946;14.610;2023-04-28T01:55:48;97055.69;;;1.12;85.25
4199;BME280;2113;50.946;14.610;2023-04-28T01:58:18;97058.34;;;1.10;85.02
4199;BME280;2113;50.946;14.610;2023-04-28T02:00:47;97061.25;;;1.04;85.48
4199;BME280;2113;50.946;14.610;2023-04-28T02:03:22;97058.63;;;1.21;84.71
4199;BME280;2113;50.946;14.610;2023-04-28T02:05:50;97051.81;;;1.20;85.09
4199;BME280;2113;50.946;14.610;2023-04-28T02:08:19;97052.28;;;1.11;86.06
4199;BME280;2113;50.946;14.610;2023-04-28T02:10:47;97059.63;;;1.19;85.43
4199;BME280;2113;50.946;14.610;2023-04-28T02:13:15;97048.16;;;1.24;83.19
4199;BME280;2113;50.946;14.610;2023-04-28T02:15:44;97040.53;;;1.38;81.94
4199;BME280;2113;50.946;14.610;2023-04-28T02:18:13;97043.16;;;1.53;80.84
4199;BME280;2113;50.946;14.610;2023-04-28T02:20:42;97035.94;;;1.59;80.39
4199;BME280;2113;50.946;14.610;2023-04-28T02:23:10;97036.56;;;1.78;79.64
4199;BME280;2113;50.946;14.610;2023-04-28T02:25:38;97032.75;;;1.86;79.31
4199;BME280;2113;50.946;14.610;2023-04-28T02:28:07;97024.44;;;1.81;80.03
4199;BME280;2113;50.946;14.610;2023-04-28T02:30:35;97025.72;;;1.73;80.56
4199;BME280;2113;50.946;14.610;2023-04-28T02:33:03;97032.31;;;1.63;82.15
4199;BME280;2113;50.946;14.610;2023-04-28T02:35:33;97030.13;;;1.56;83.32
4199;BME280;2113;50.946;14.610;2023-04-28T02:38:01;97032.47;;;1.60;82.79
4199;BME280;2113;50.946;14.610;2023-04-28T02:40:29;97027.25;;;1.62;82.98
4199;BME280;2113;50.946;14.610;2023-04-28T02:42:58;97029.31;;;1.55;83.98
4199;BME280;2113;50.946;14.610;2023-04-28T02:45:26;97025.75;;;1.42;82.53
4199;BME280;2113;50.946;14.610;2023-04-28T02:47:54;97027.47;;;1.57;81.32
4199;BME280;2113;50.946;14.610;2023-04-28T02:50:23;97015.13;;;1.78;78.79
4199;BME280;2113;50.946;14.610;2023-04-28T02:52:53;97017.53;;;1.81;80.10
4199;BME280;2113;50.946;14.610;2023-04-28T02:55:22;97009.88;;;1.95;78.54
4199;BME280;2113;50.946;14.610;2023-04-28T02:57:51;97019.28;;;2.10;77.72
4199;BME280;2113;50.946;14.610;2023-04-28T03:00:20;97013.81;;;2.17;77.81
4199;BME280;2113;50.946;14.610;2023-04-28T03:02:49;97015.22;;;2.06;77.79
4199;BME280;2113;50.946;14.610;2023-04-28T03:05:18;97009.81;;;2.11;76.64
4199;BME280;2113;50.946;14.610;2023-04-28T03:07:47;97004.34;;;2.31;75.34
4199;BME280;2113;50.946;14.610;2023-04-28T03:10:16;97000.84;;;2.46;74.83
4199;BME280;2113;50.946;14.610;2023-04-28T03:12:45;96994.25;;;2.57;74.00
4199;BME280;2113;50.946;14.610;2023-04-28T03:15:13;96997.00;;;2.68;72.01
4199;BME280;2113;50.946;14.610;2023-04-28T03:17:42;96988.50;;;2.80;72.39
4199;BME280;2113;50.946;14.610;2023-04-28T03:20:11;96985.56;;;2.86;71.85
4199;BME280;2113;50.946;14.610;2023-04-28T03:22:40;96981.88;;;2.90;70.72
4199;BME280;2113;50.946;14.610;2023-04-28T03:25:08;96979.94;;;2.94;71.09
4199;BME280;2113;50.946;14.610;2023-04-28T03:27:46;96982.84;;;3.02;70.41
4199;BME280;2113;50.946;14.610;2023-04-28T03:30:15;96980.00;;;3.06;70.38
4199;BME280;2113;50.946;14.610;2023-04-28T03:32:43;96987.56;;;3.09;70.27
4199;BME280;2113;50.946;14.610;2023-04-28T03:35:12;96980.66;;;3.10;69.66
4199;BME280;2113;50.946;14.610;2023-04-28T03:37:41;96990.56;;;3.16;68.93
4199;BME280;2113;50.946;14.610;2023-04-28T03:40:10;96983.56;;;3.18;70.11
4199;BME280;2113;50.946;14.610;2023-04-28T03:42:59;96987.00;;;3.04;71.29
4199;BME280;2113;50.946;14.610;2023-04-28T03:45:37;96990.81;;;2.84;73.16
4199;BME280;2113;50.946;14.610;2023-04-28T03:48:07;96988.88;;;2.74;72.42
4199;BME280;2113;50.946;14.610;2023-04-28T03:50:36;96986.41;;;2.72;72.50
4199;BME280;2113;50.946;14.610;2023-04-28T03:53:07;96981.78;;;2.77;73.09
4199;BME280;2113;50.946;14.610;2023-04-28T03:55:36;96990.09;;;2.68;71.70
4199;BME280;2113;50.946;14.610;2023-04-28T03:58:05;96982.63;;;2.78;72.78
4199;BME280;2113;50.946;14.610;2023-04-28T04:00:34;96978.84;;;2.83;71.79
4199;BME280;2113;50.946;14.610;2023-04-28T04:03:02;96983.97;;;3.12;69.69
4199;BME280;2113;50.946;14.610;2023-04-28T04:05:31;96982.91;;;3.14;70.83
4199;BME280;2113;50.946;14.610;2023-04-28T04:07:59;96974.53;;;3.25;69.37
4199;BME280;2113;50.946;14.610;2023-04-28T04:10:29;96976.09;;;3.54;67.95
4199;BME280;2113;50.946;14.610;2023-04-28T04:12:57;96979.69;;;3.52;69.28
4199;BME280;2113;50.946;14.610;2023-04-28T04:15:27;96973.78;;;3.50;69.16
4199;BME280;2113;50.946;14.610;2023-04-28T04:17:55;96979.19;;;3.60;69.36
4199;BME280;2113;50.946;14.610;2023-04-28T04:20:26;96978.34;;;3.59;69.01
4199;BME280;2113;50.946;14.610;2023-04-28T04:22:54;96979.41;;;3.69;67.71
4199;BME280;2113;50.946;14.610;2023-04-28T04:25:23;96975.16;;;3.95;65.71
4199;BME280;2113;50.946;14.610;2023-04-28T04:27:51;96979.19;;;4.12;66.46
4199;BME280;2113;50.946;14.610;2023-04-28T04:30:23;96978.06;;;4.28;64.05
4199;BME280;2113;50.946;14.610;2023-04-28T04:32:53;96971.47;;;4.37;64.78
4199;BME280;2113;50.946;14.610;2023-04-28T04:35:21;96976.94;;;4.45;64.41
4199;BME280;2113;50.946;14.610;2023-04-28T04:37:50;96965.16;;;4.54;64.92
4199;BME280;2113;50.946;14.610;2023-04-28T04:40:19;96967.81;;;4.65;63.71
4199;BME280;2113;50.946;14.610;2023-04-28T04:42:49;96965.00;;;4.81;62.84
4199;BME280;2113;50.946;14.610;2023-04-28T04:45:19;96965.44;;;4.87;62.12
4199;BME280;2113;50.946;14.610;2023-04-28T04:47:48;96964.88;;;4.95;61.13
4199;BME280;2113;50.946;14.610;2023-04-28T04:50:18;96960.53;;;4.95;61.82
4199;BME280;2113;50.946;14.610;2023-04-28T04:52:47;96959.66;;;5.08;62.23
4199;BME280;2113;50.946;14.610;2023-04-28T04:55:15;96961.22;;;5.10;62.29
4199;BME280;2113;50.946;14.610;2023-04-28T04:57:44;96955.00;;;5.13;63.18
4199;BME280;2113;50.946;14.610;2023-04-28T05:00:32;96959.00;;;5.29;63.22
4199;BME280;2113;50.946;14.610;2023-04-28T05:03:02;96953.72;;;5.31;61.09
4199;BME280;2113;50.946;14.610;2023-04-28T05:05:34;96945.69;;;5.34;60.85
4199;BME280;2113;50.946;14.610;2023-04-28T05:08:09;96937.50;;;5.40;61.90
4199;BME280;2113;50.946;14.610;2023-04-28T05:10:37;96938.38;;;5.52;61.93
4199;BME280;2113;50.946;14.610;2023-04-28T05:13:06;96929.38;;;5.68;61.67
4199;BME280;2113;50.946;14.610;2023-04-28T05:15:34;96925.06;;;5.80;60.92
4199;BME280;2113;50.946;14.610;2023-04-28T05:18:19;96921.25;;;5.97;59.48
4199;BME280;2113;50.946;14.610;2023-04-28T05:20:49;96926.13;;;6.13;60.56
4199;BME280;2113;50.946;14.610;2023-04-28T05:23:18;96918.47;;;6.33;58.84
4199;BME280;2113;50.946;14.610;2023-04-28T05:25:47;96914.34;;;6.31;59.19
4199;BME280;2113;50.946;14.610;2023-04-28T05:28:15;96913.88;;;6.26;59.09
4199;BME280;2113;50.946;14.610;2023-04-28T05:30:47;96912.13;;;6.49;57.54
4199;BME280;2113;50.946;14.610;2023-04-28T05:33:16;96915.44;;;6.39;57.49
4199;BME280;2113;50.946;14.610;2023-04-28T05:35:46;96914.38;;;6.53;57.51
4199;BME280;2113;50.946;14.610;2023-04-28T05:38:16;96914.81;;;6.58;57.44
4199;BME280;2113;50.946;14.610;2023-04-28T05:40:46;96914.38;;;6.42;57.46
4199;BME280;2113;50.946;14.610;2023-04-28T05:43:15;96920.97;;;6.46;57.21
4199;BME280;2113;50.946;14.610;2023-04-28T05:45:44;96916.25;;;6.62;57.09
4199;BME280;2113;50.946;14.610;2023-04-28T05:48:13;96911.63;;;6.77;57.95
4199;BME280;2113;50.946;14.610;2023-04-28T05:50:43;96912.69;;;6.86;56.10
4199;BME280;2113;50.946;14.610;2023-04-28T05:53:12;96907.50;;;6.97;56.58
4199;BME280;2113;50.946;14.610;2023-04-28T05:55:41;96915.72;;;7.02;55.19
4199;BME280;2113;50.946;14.610;2023-04-28T05:58:10;96913.78;;;7.26;54.88
4199;BME280;2113;50.946;14.610;2023-04-28T06:00:39;96914.59;;;7.27;54.94
4199;BME280;2113;50.946;14.610;2023-04-28T06:03:07;96910.66;;;7.43;56.03
4199;BME280;2113;50.946;14.610;2023-04-28T06:05:37;96913.03;;;7.46;54.05
4199;BME280;2113;50.946;14.610;2023-04-28T06:08:06;96905.22;;;7.46;56.06
4199;BME280;2113;50.946;14.610;2023-04-28T06:10:36;96905.69;;;7.72;54.18
4199;BME280;2113;50.946;14.610;2023-04-28T06:13:06;96905.03;;;7.91;54.91
4199;BME280;2113;50.946;14.610;2023-04-28T06:15:35;96908.06;;;7.75;53.20
4199;BME280;2113;50.946;14.610;2023-04-28T06:18:04;96906.69;;;7.92;53.44
4199;BME280;2113;50.946;14.610;2023-04-28T06:20:33;96893.94;;;7.89;53.10
4199;BME280;2113;50.946;14.610;2023-04-28T06:23:02;96902.16;;;8.15;54.04
4199;BME280;2113;50.946;14.610;2023-04-28T06:25:31;96898.19;;;8.20;52.54
4199;BME280;2113;50.946;14.610;2023-04-28T06:27:59;96899.09;;;8.31;51.11
4199;BME280;2113;50.946;14.610;2023-04-28T06:30:29;96904.31;;;8.10;50.98
4199;BME280;2113;50.946;14.610;2023-04-28T06:32:57;96897.31;;;8.31;50.53
4199;BME280;2113;50.946;14.610;2023-04-28T06:35:27;96899.19;;;8.19;51.31
4199;BME280;2113;50.946;14.610;2023-04-28T06:37:55;96896.59;;;8.50;51.87
4199;BME280;2113;50.946;14.610;2023-04-28T06:40:23;96896.47;;;8.82;52.00
4199;BME280;2113;50.946;14.610;2023-04-28T06:42:55;96893.69;;;8.74;49.52
4199;BME280;2113;50.946;14.610;2023-04-28T06:45:34;96900.25;;;9.18;50.12
4199;BME280;2113;50.946;14.610;2023-04-28T06:48:03;96896.28;;;9.91;47.66
4199;BME280;2113;50.946;14.610;2023-04-28T06:50:31;96900.84;;;9.79;47.45
4199;BME280;2113;50.946;14.610;2023-04-28T06:53:05;96895.34;;;9.92;46.27
4199;BME280;2113;50.946;14.610;2023-04-28T06:55:33;96894.09;;;9.96;46.45
4199;BME280;2113;50.946;14.610;2023-04-28T06:58:02;96888.97;;;10.14;47.82
4199;BME280;2113;50.946;14.610;2023-04-28T07:00:32;96879.09;;;10.64;46.37
4199;BME280;2113;50.946;14.610;2023-04-28T07:03:02;96883.06;;;10.95;45.56
4199;BME280;2113;50.946;14.610;2023-04-28T07:05:32;96885.78;;;11.03;43.58
4199;BME280;2113;50.946;14.610;2023-04-28T07:08:00;96883.56;;;11.97;42.35
4199;BME280;2113;50.946;14.610;2023-04-28T07:10:28;96876.41;;;11.82;42.04
4199;BME280;2113;50.946;14.610;2023-04-28T07:12:57;96882.16;;;11.67;43.40
4199;BME280;2113;50.946;14.610;2023-04-28T07:15:26;96871.84;;;11.30;44.96
4199;BME280;2113;50.946;14.610;2023-04-28T07:17:54;96873.81;;;10.74;46.35
4199;BME280;2113;50.946;14.610;2023-04-28T07:20:24;96872.72;;;11.03;45.94
4199;BME280;2113;50.946;14.610;2023-04-28T07:22:52;96866.56;;;10.95;45.66
4199;BME280;2113;50.946;14.610;2023-04-28T07:25:21;96863.38;;;10.74;46.78
4199;BME280;2113;50.946;14.610;2023-04-28T07:27:49;96862.72;;;10.35;48.28
4199;BME280;2113;50.946;14.610;2023-04-28T07:30:18;96858.22;;;10.82;48.19
4199;BME280;2113;50.946;14.610;2023-04-28T07:32:51;96853.00;;;10.82;48.55
4199;BME280;2113;50.946;14.610;2023-04-28T07:35:19;96857.72;;;9.94;48.91
4199;BME280;2113;50.946;14.610;2023-04-28T07:37:49;96860.09;;;9.69;48.95
4199;BME280;2113;50.946;14.610;2023-04-28T07:40:18;96857.63;;;9.67;48.82
4199;BME280;2113;50.946;14.610;2023-04-28T07:42:46;96852.75;;;10.01;49.07
4199;BME280;2113;50.946;14.610;2023-04-28T07:45:15;96851.63;;;10.60;48.47
4199;BME280;2113;50.946;14.610;2023-04-28T07:47:43;96844.34;;;13.07;41.80
4199;BME280;2113;50.946;14.610;2023-04-28T07:50:11;96846.78;;;12.93;40.97
4199;BME280;2113;50.946;14.610;2023-04-28T07:52:40;96843.47;;;13.49;40.03
4199;BME280;2113;50.946;14.610;2023-04-28T07:55:09;96835.13;;;14.66;37.52
4199;BME280;2113;50.946;14.610;2023-04-28T07:57:37;96829.69;;;13.71;40.66
4199;BME280;2113;50.946;14.610;2023-04-28T08:00:07;96822.09;;;14.09;41.11
4199;BME280;2113;50.946;14.610;2023-04-28T08:02:38;96820.31;;;16.91;34.37
4199;BME280;2113;50.946;14.610;2023-04-28T08:05:07;96820.28;;;17.63;32.91
4199;BME280;2113;50.946;14.610;2023-04-28T08:07:36;96815.38;;;18.03;32.23
4199;BME280;2113;50.946;14.610;2023-04-28T08:10:05;96815.56;;;17.80;30.89
4199;BME280;2113;50.946;14.610;2023-04-28T08:12:36;96815.06;;;18.88;31.70
4199;BME280;2113;50.946;14.610;2023-04-28T08:15:06;96816.09;;;19.55;30.83
4199;BME280;2113;50.946;14.610;2023-04-28T08:17:34;96811.44;;;19.70;28.45
4199;BME280;2113;50.946;14.610;2023-04-28T08:20:03;96807.19;;;21.44;27.16
4199;BME280;2113;50.946;14.610;2023-04-28T08:22:32;96808.44;;;18.30;30.17
4199;BME280;2113;50.946;14.610;2023-04-28T08:25:00;96811.94;;;16.44;32.17
4199;BME280;2113;50.946;14.610;2023-04-28T08:27:29;96813.91;;;15.06;35.91
4199;BME280;2113;50.946;14.610;2023-04-28T08:29:59;96814.59;;;13.33;40.38
4199;BME280;2113;50.946;14.610;2023-04-28T08:32:27;96810.13;;;13.09;38.71
4199;BME280;2113;50.946;14.610;2023-04-28T08:34:56;96806.53;;;13.26;40.85
4199;BME280;2113;50.946;14.610;2023-04-28T08:37:25;96807.13;;;14.42;39.05
4199;BME280;2113;50.946;14.610;2023-04-28T08:39:53;96793.19;;;17.33;35.18
4199;BME280;2113;50.946;14.610;2023-04-28T08:42:28;96795.88;;;17.83;34.13
4199;BME280;2113;50.946;14.610;2023-04-28T08:44:58;96789.78;;;21.79;27.29
4199;BME280;2113;50.946;14.610;2023-04-28T08:47:32;96794.94;;;19.81;30.71
4199;BME280;2113;50.946;14.610;2023-04-28T08:50:02;96791.81;;;18.77;32.16
4199;BME280;2113;50.946;14.610;2023-04-28T08:52:32;96805.91;;;15.22;35.53
4199;BME280;2113;50.946;14.610;2023-04-28T08:55:05;96808.03;;;13.69;39.07
4199;BME280;2113;50.946;14.610;2023-04-28T08:57:36;96799.94;;;13.14;41.78
4199;BME280;2113;50.946;14.610;2023-04-28T09:00:11;96797.22;;;13.32;41.39
4199;BME280;2113;50.946;14.610;2023-04-28T09:02:40;96792.47;;;13.92;41.07
4199;BME280;2113;50.946;14.610;2023-04-28T09:05:10;96791.31;;;14.50;41.92
4199;BME280;2113;50.946;14.610;2023-04-28T09:07:39;96792.09;;;14.98;37.85
4199;BME280;2113;50.946;14.610;2023-04-28T09:10:18;96798.72;;;15.39;36.24
4199;BME280;2113;50.946;14.610;2023-04-28T09:12:50;96791.75;;;15.92;37.13
4199;BME280;2113;50.946;14.610;2023-04-28T09:15:28;96786.25;;;15.33;35.70
4199;BME280;2113;50.946;14.610;2023-04-28T09:18:00;96786.63;;;14.29;41.70
4199;BME280;2113;50.946;14.610;2023-04-28T09:20:31;96793.34;;;14.23;38.49
4199;BME280;2113;50.946;14.610;2023-04-28T09:23:13;96774.59;;;13.79;42.20
4199;BME280;2113;50.946;14.610;2023-04-28T09:25:57;96789.03;;;13.43;42.24
4199;BME280;2113;50.946;14.610;2023-04-28T09:28:26;96784.84;;;12.84;43.36
4199;BME280;2113;50.946;14.610;2023-04-28T09:30:56;96784.41;;;12.54;44.74
4199;BME280;2113;50.946;14.610;2023-04-28T09:33:25;96788.06;;;12.69;42.57
4199;BME280;2113;50.946;14.610;2023-04-28T09:35:54;96784.13;;;12.73;44.31
4199;BME280;2113;50.946;14.610;2023-04-28T09:38:22;96786.44;;;12.76;42.91
4199;BME280;2113;50.946;14.610;2023-04-28T09:40:52;96791.06;;;12.82;42.89
4199;BME280;2113;50.946;14.610;2023-04-28T09:43:29;96789.56;;;12.88;43.62
4199;BME280;2113;50.946;14.610;2023-04-28T09:45:59;96784.84;;;13.00;44.13
4199;BME280;2113;50.946;14.610;2023-04-28T09:48:31;96776.97;;;12.92;41.84
4199;BME280;2113;50.946;14.610;2023-04-28T09:51:01;96772.16;;;13.37;41.60
4199;BME280;2113;50.946;14.610;2023-04-28T09:53:30;96765.59;;;13.49;42.23
4199;BME280;2113;50.946;14.610;2023-04-28T09:56:00;96769.66;;;13.68;41.13
4199;BME280;2113;50.946;14.610;2023-04-28T09:58:29;96761.31;;;13.32;40.94
4199;BME280;2113;50.946;14.610;2023-04-28T10:01:00;96759.03;;;13.29;40.69
4199;BME280;2113;50.946;14.610;2023-04-28T10:03:29;96759.84;;;13.46;41.72
4199;BME280;2113;50.946;14.610;2023-04-28T10:05:58;96756.75;;;13.34;41.97
4199;BME280;2113;50.946;14.610;2023-04-28T10:08:27;96757.38;;;13.20;42.85
4199;BME280;2113;50.946;14.610;2023-04-28T10:10:56;96754.13;;;13.34;41.56
4199;BME280;2113;50.946;14.610;2023-04-28T10:13:24;96745.56;;;13.57;41.98
4199;BME280;2113;50.946;14.610;2023-04-28T10:15:52;96746.56;;;13.64;42.84
4199;BME280;2113;50.946;14.610;2023-04-28T10:18:27;96761.59;;;13.13;41.75
4199;BME280;2113;50.946;14.610;2023-04-28T10:20:59;96753.38;;;12.92;42.92
4199;BME280;2113;50.946;14.610;2023-04-28T10:26:35;96740.75;;;12.79;43.32
4199;BME280;2113;50.946;14.610;2023-04-28T10:29:14;96746.34;;;12.92;42.72
4199;BME280;2113;50.946;14.610;2023-04-28T10:32:13;96745.53;;;13.00;42.69
4199;BME280;2113;50.946;14.610;2023-04-28T10:34:43;96739.13;;;12.94;42.59
4199;BME280;2113;50.946;14.610;2023-04-28T10:37:12;96741.75;;;13.02;41.76
4199;BME280;2113;50.946;14.610;2023-04-28T10:42:51;96731.13;;;12.96;42.02
4199;BME280;2113;50.946;14.610;2023-04-28T10:46:00;96722.44;;;12.95;43.95
4199;BME280;2113;50.946;14.610;2023-04-28T10:48:52;96726.22;;;13.41;40.94
4199;BME280;2113;50.946;14.610;2023-04-28T10:51:29;96723.97;;;14.10;41.52
4199;BME280;2113;50.946;14.610;2023-04-28T10:54:17;96720.31;;;13.39;41.07
4199;BME280;2113;50.946;14.610;2023-04-28T10:57:17;96717.56;;;13.49;42.96
4199;BME280;2113;50.946;14.610;2023-04-28T10:59:50;96712.63;;;13.62;41.31
4199;BME280;2113;50.946;14.610;2023-04-28T11:02:40;96708.03;;;13.40;42.66
4199;BME280;2113;50.946;14.610;2023-04-28T11:05:12;96710.34;;;13.19;42.80
4199;BME280;2113;50.946;14.610;2023-04-28T11:11:21;96710.81;;;13.06;42.53
4199;BME280;2113;50.946;14.610;2023-04-28T11:13:53;96702.47;;;13.27;43.35
4199;BME280;2113;50.946;14.610;2023-04-28T11:16:23;96698.34;;;13.40;43.57
4199;BME280;2113;50.946;14.610;2023-04-28T11:18:58;96707.72;;;13.51;41.99
4199;BME280;2113;50.946;14.610;2023-04-28T11:21:30;96705.25;;;13.41;43.66
4199;BME280;2113;50.946;14.610;2023-04-28T11:23:59;96706.22;;;13.65;42.01
4199;BME280;2113;50.946;14.610;2023-04-28T11:26:29;96706.84;;;13.67;42.98
4199;BME280;2113;50.946;14.610;2023-04-28T11:28:58;96706.69;;;13.76;45.27
4199;BME280;2113;50.946;14.610;2023-04-28T11:31:26;96716.56;;;13.66;41.98
4199;BME280;2113;50.946;14.610;2023-04-28T11:33:57;96703.13;;;13.37;42.54
4199;BME280;2113;50.946;14.610;2023-04-28T11:36:29;96712.59;;;13.13;41.99
4199;BME280;2113;50.946;14.610;2023-04-28T11:38:59;96713.41;;;12.81;42.99
4199;BME280;2113;50.946;14.610;2023-04-28T11:41:28;96714.53;;;12.87;41.15
4199;BME280;2113;50.946;14.610;2023-04-28T11:43:56;96707.66;;;12.78;42.96
4199;BME280;2113;50.946;14.610;2023-04-28T11:46:25;96706.22;;;12.92;42.41
4199;BME280;2113;50.946;14.610;2023-04-28T11:49:02;96715.38;;;12.88;41.99
4199;BME280;2113;50.946;14.610;2023-04-28T11:51:33;96715.88;;;12.83;42.55
4199;BME280;2113;50.946;14.610;2023-04-28T11:54:02;96722.06;;;12.74;42.42
4199;BME280;2113;50.946;14.610;2023-04-28T11:56:36;96724.81;;;12.56;43.26
4199;BME280;2113;50.946;14.610;2023-04-28T11:59:06;96731.81;;;12.48;43.47
4199;BME280;2113;50.946;14.610;2023-04-28T12:01:44;96724.25;;;12.28;44.55
4199;BME280;2113;50.946;14.610;2023-04-28T12:04:12;96725.22;;;12.27;47.11
4199;BME280;2113;50.946;14.610;2023-04-28T12:06:41;96723.75;;;12.33;48.52
4199;BME280;2113;50.946;14.610;2023-04-28T12:09:17;96728.06;;;12.58;46.95
4199;BME280;2113;50.946;14.610;2023-04-28T12:11:56;96731.50;;;12.59;44.76
4199;BME280;2113;50.946;14.610;2023-04-28T12:14:25;96721.53;;;12.54;43.78
4199;BME280;2113;50.946;14.610;2023-04-28T12:16:53;96715.13;;;12.49;44.39
4199;BME280;2113;50.946;14.610;2023-04-28T12:19:23;96713.53;;;12.64;47.57
4199;BME280;2113;50.946;14.610;2023-04-28T12:21:58;96712.53;;;12.57;46.46
4199;BME280;2113;50.946;14.610;2023-04-28T12:24:27;96719.03;;;12.44;47.77
4199;BME280;2113;50.946;14.610;2023-04-28T12:31:30;96720.00;;;12.35;49.32
4199;BME280;2113;50.946;14.610;2023-04-28T12:34:00;96713.47;;;12.39;49.38
4199;BME280;2113;50.946;14.610;2023-04-28T12:36:29;96708.41;;;12.46;49.59
4199;BME280;2113;50.946;14.610;2023-04-28T12:38:57;96718.09;;;12.54;49.99
4199;BME280;2113;50.946;14.610;2023-04-28T12:41:25;96708.41;;;12.46;49.16
4199;BME280;2113;50.946;14.610;2023-04-28T12:43:53;96706.38;;;12.24;48.87
4199;BME280;2113;50.946;14.610;2023-04-28T12:46:22;96703.81;;;12.40;52.24
4199;BME280;2113;50.946;14.610;2023-04-28T12:48:52;96702.78;;;12.33;49.61
4199;BME280;2113;50.946;14.610;2023-04-28T12:51:20;96708.63;;;12.19;50.97
4199;BME280;2113;50.946;14.610;2023-04-28T12:53:48;96707.63;;;12.12;51.73
4199;BME280;2113;50.946;14.610;2023-04-28T12:56:17;96704.19;;;12.11;51.33
4199;BME280;2113;50.946;14.610;2023-04-28T12:58:45;96699.84;;;11.86;50.70
4199;BME280;2113;50.946;14.610;2023-04-28T13:01:13;96692.69;;;11.96;53.37
4199;BME280;2113;50.946;14.610;2023-04-28T13:03:42;96700.59;;;12.12;54.39
4199;BME280;2113;50.946;14.610;2023-04-28T13:06:12;96703.25;;;12.20;52.08
4199;BME280;2113;50.946;14.610;2023-04-28T13:08:41;96700.16;;;12.25;50.99
4199;BME280;2113;50.946;14.610;2023-04-28T13:11:11;96691.03;;;12.29;51.15
4199;BME280;2113;50.946;14.610;2023-04-28T13:13:45;96692.47;;;12.23;51.93
4199;BME280;2113;50.946;14.610;2023-04-28T13:16:13;96692.56;;;12.56;50.02
4199;BME280;2113;50.946;14.610;2023-04-28T13:18:41;96686.34;;;12.65;50.28
4199;BME280;2113;50.946;14.610;2023-04-28T13:21:11;96680.44;;;12.63;50.83
4199;BME280;2113;50.946;14.610;2023-04-28T13:23:39;96691.75;;;12.55;52.63
4199;BME280;2113;50.946;14.610;2023-04-28T13:26:08;96689.44;;;12.52;51.01
4199;BME280;2113;50.946;14.610;2023-04-28T13:28:36;96682.56;;;12.51;51.07
4199;BME280;2113;50.946;14.610;2023-04-28T13:31:05;96685.66;;;12.46;53.84
4199;BME280;2113;50.946;14.610;2023-04-28T13:33:33;96679.13;;;12.59;56.09
4199;BME280;2113;50.946;14.610;2023-04-28T13:36:01;96675.53;;;12.52;55.42
4199;BME280;2113;50.946;14.610;2023-04-28T13:38:31;96676.00;;;12.47;53.90
4199;BME280;2113;50.946;14.610;2023-04-28T13:40:59;96672.09;;;12.59;56.97
4199;BME280;2113;50.946;14.610;2023-04-28T13:43:28;96669.00;;;12.64;57.00
4199;BME280;2113;50.946;14.610;2023-04-28T13:45:56;96661.41;;;12.36;55.53
4199;BME280;2113;50.946;14.610;2023-04-28T13:48:25;96667.72;;;12.09;56.58